Time;durP1;ratioP1;P1;durP2;ratioP2;P2;SDS_P1;SDS_P2;PMS_P1;PMS_P2;Temp;Humidity;BMP_temperature;BMP_pressure;BME280_temperature;BME280_humidity;BME280_pressure;Samples;Min_cycle;Max_cycle;Signal;HPM_P1;HPM_P2
2024/02/04 00:01:41;;;;;;;5.60;3.03;;;;;;;6.89;62.20;94318.88;5026149;28;20331;-79
2024/02/04 00:04:07;;;;;;;5.15;2.78;;;;;;;6.90;62.22;94310.66;5025756;28;20044;-80
2024/02/04 00:06:33;;;;;;;4.82;3.08;;;;;;;6.91;62.03;94312.22;5026054;28;20340;-79
2024/02/04 00:08:58;;;;;;;6.32;2.70;;;;;;;6.89;62.37;94314.34;5025695;28;20033;-80
2024/02/04 00:11:23;;;;;;;5.93;3.33;;;;;;;6.93;62.17;94310.06;5025556;28;20316;-79
2024/02/04 00:13:49;;;;;;;6.63;2.83;;;;;;;6.88;62.32;94317.28;5025529;28;20033;-79
2024/02/04 00:16:14;;;;;;;5.85;2.90;;;;;;;6.84;62.28;94306.47;5025447;28;20283;-79
2024/02/04 00:18:40;;;;;;;4.63;2.58;;;;;;;6.81;62.58;94307.00;5025491;28;20029;-79
2024/02/04 00:21:05;;;;;;;6.97;3.00;;;;;;;6.80;62.43;94306.22;5025227;28;20037;-80
2024/02/04 00:23:31;;;;;;;6.28;3.13;;;;;;;6.78;62.62;94318.94;5025465;28;20041;-81
2024/02/04 00:25:56;;;;;;;9.48;2.92;;;;;;;6.79;62.03;94303.84;5025216;28;20025;-81
2024/02/04 00:28:22;;;;;;;7.40;3.22;;;;;;;6.78;62.32;94307.56;5025356;28;20057;-81
2024/02/04 00:30:49;;;;;;;4.97;2.05;;;;;;;6.67;63.11;94295.47;5025240;28;20049;-79
2024/02/04 00:33:15;;;;;;;5.05;2.63;;;;;;;6.67;63.39;94290.16;5025588;28;20022;-79
2024/02/04 00:35:41;;;;;;;5.63;2.67;;;;;;;6.69;63.81;94303.91;5025293;28;20087;-79
2024/02/04 00:38:08;;;;;;;3.60;2.00;;;;;;;6.66;64.29;94297.31;5025012;28;20085;-80
2024/02/04 00:40:34;;;;;;;6.00;2.15;;;;;;;6.71;64.62;94293.84;5024874;28;20073;-79
2024/02/04 00:43:00;;;;;;;3.85;2.10;;;;;;;6.76;65.04;94291.94;5025252;28;20014;-79
2024/02/04 00:45:25;;;;;;;6.55;2.50;;;;;;;6.76;64.65;94301.75;5024869;28;20018;-79
2024/02/04 00:47:51;;;;;;;8.27;2.60;;;;;;;6.79;64.97;94306.50;5024886;28;20364;-79
2024/02/04 00:50:16;;;;;;;3.90;2.08;;;;;;;6.78;65.11;94281.84;5024988;28;20089;-80
2024/02/04 00:52:41;;;;;;;4.60;2.40;;;;;;;6.81;65.08;94289.22;5023611;28;20041;-79
2024/02/04 00:55:07;;;;;;;5.90;2.50;;;;;;;6.86;65.04;94293.72;5025083;28;20057;-79
2024/02/04 00:57:33;;;;;;;4.45;2.15;;;;;;;6.85;65.48;94308.03;5024722;28;20268;-80
2024/02/04 00:59:58;;;;;;;3.67;2.20;;;;;;;6.87;65.57;94276.75;5024689;28;20018;-80
2024/02/04 01:02:24;;;;;;;5.15;2.78;;;;;;;6.86;65.95;94277.00;5024530;28;20028;-79
2024/02/04 01:04:50;;;;;;;5.40;2.45;;;;;;;6.91;66.07;94284.94;5024554;28;20089;-79
2024/02/04 01:07:15;;;;;;;4.00;2.25;;;;;;;6.92;66.12;94281.19;5024513;28;20251;-79
2024/02/04 01:09:41;;;;;;;5.45;2.25;;;;;;;6.96;66.59;94272.44;5024725;28;20037;-80
2024/02/04 01:12:07;;;;;;;5.85;3.00;;;;;;;6.98;66.19;94283.53;5024261;28;20017;-79
2024/02/04 01:14:33;;;;;;;4.15;1.95;;;;;;;6.93;66.33;94283.56;5024223;28;20014;-79
2024/02/04 01:16:58;;;;;;;5.18;2.33;;;;;;;7.03;66.32;94288.78;5024812;28;20115;-80
2024/02/04 01:19:24;;;;;;;6.35;2.45;;;;;;;7.11;66.35;94273.34;5024489;28;20022;-80
2024/02/04 01:21:49;;;;;;;4.32;2.15;;;;;;;7.08;66.75;94303.06;5024454;28;20189;-80
2024/02/04 01:24:14;;;;;;;5.75;2.33;;;;;;;7.10;66.72;94283.13;5024405;28;20336;-80
2024/02/04 01:26:40;;;;;;;4.95;2.42;;;;;;;7.12;66.57;94280.22;5023747;28;20029;-80
2024/02/04 01:29:05;;;;;;;4.88;2.00;;;;;;;7.05;66.75;94259.34;5024078;28;20044;-80
2024/02/04 01:31:31;;;;;;;5.05;1.77;;;;;;;7.13;66.69;94271.22;5023941;28;20072;-79
2024/02/04 01:33:56;;;;;;;3.88;2.10;;;;;;;7.11;66.57;94295.34;5023924;28;20076;-80
2024/02/04 01:36:21;;;;;;;4.60;1.88;;;;;;;7.14;66.67;94264.81;5023812;28;20030;-79
2024/02/04 01:38:47;;;;;;;3.85;1.80;;;;;;;7.17;66.91;94266.94;5024208;28;20029;-79
2024/02/04 01:41:12;;;;;;;4.82;2.15;;;;;;;7.21;66.65;94265.28;5024534;28;20025;-79
2024/02/04 01:43:38;;;;;;;4.95;2.58;;;;;;;7.25;66.37;94254.91;5023967;28;20032;-79
2024/02/04 01:46:03;;;;;;;3.65;1.60;;;;;;;7.22;66.13;94249.09;5023807;28;20034;-79
2024/02/04 01:48:29;;;;;;;6.15;2.28;;;;;;;7.25;65.93;94266.31;5023850;28;20029;-79
2024/02/04 01:50:59;;;;;;;3.72;1.98;;;;;;;7.24;66.00;94246.16;5023738;28;20064;-79
2024/02/04 01:53:27;;;;;;;5.13;1.92;;;;;;;7.27;65.87;94261.50;5023286;28;20056;-79
2024/02/04 01:55:54;;;;;;;3.00;1.67;;;;;;;7.31;66.28;94251.91;5023735;28;20022;-79
2024/02/04 01:58:20;;;;;;;3.40;2.17;;;;;;;7.30;66.21;94252.97;5024024;28;20251;-80
2024/02/04 02:00:46;;;;;;;4.18;1.83;;;;;;;7.32;66.30;94290.59;5022657;28;20067;-80
2024/02/04 02:03:12;;;;;;;5.95;2.35;;;;;;;7.31;66.25;94272.34;5024323;28;20021;-80
2024/02/04 02:05:39;;;;;;;5.22;2.47;;;;;;;7.26;66.33;94245.88;5023900;28;20017;-81
2024/02/04 02:08:06;;;;;;;4.28;2.20;;;;;;;7.27;66.46;94245.59;5023839;28;20053;-80
2024/02/04 02:10:31;;;;;;;4.00;2.13;;;;;;;7.31;66.02;94251.91;5023626;28;20030;-80
2024/02/04 02:13:13;;;;;;;4.88;2.17;;;;;;;7.27;65.97;94260.72;5023354;28;20041;-80
2024/02/04 02:15:47;;;;;;;6.50;2.00;;;;;;;7.26;65.87;94246.66;5023418;28;20022;-81
2024/02/04 02:18:23;;;;;;;4.25;2.28;;;;;;;7.29;65.79;94243.47;5023324;28;20021;-81
2024/02/04 02:21:00;;;;;;;4.28;2.10;;;;;;;7.29;65.41;94248.75;5023333;28;20026;-81
2024/02/04 02:23:31;;;;;;;3.35;1.75;;;;;;;7.35;65.39;94230.94;5023151;28;20202;-81
2024/02/04 02:25:58;;;;;;;5.07;1.52;;;;;;;7.40;64.97;94249.44;5023115;28;20301;-81
2024/02/04 02:28:23;;;;;;;6.13;2.40;;;;;;;7.42;64.76;94239.31;5023280;28;20026;-81
2024/02/04 02:30:49;;;;;;;3.70;1.73;;;;;;;7.50;64.62;94240.56;5023111;28;20048;-81
2024/02/04 02:33:14;;;;;;;3.80;1.80;;;;;;;7.38;64.23;94235.66;5022944;28;20037;-80
2024/02/04 02:35:40;;;;;;;5.50;2.00;;;;;;;7.42;64.24;94250.72;5021999;28;20053;-80
2024/02/04 02:38:12;;;;;;;4.03;2.13;;;;;;;7.47;64.14;94259.69;5023069;28;20028;-81
2024/02/04 02:40:45;;;;;;;4.43;2.10;;;;;;;7.47;63.85;94254.38;5023532;28;20105;-81
2024/02/04 02:43:12;;;;;;;3.53;1.75;;;;;;;7.48;64.03;94245.38;5023458;28;20014;-81
2024/02/04 02:45:41;;;;;;;3.97;1.67;;;;;;;7.49;64.29;94236.31;5023087;28;20017;-82
2024/02/04 02:48:08;;;;;;;4.70;1.95;;;;;;;7.53;64.33;94255.91;5023101;28;20045;-81
2024/02/04 02:50:34;;;;;;;4.18;2.00;;;;;;;7.55;63.69;94230.69;5021860;28;20037;-81
2024/02/04 02:52:59;;;;;;;4.18;1.83;;;;;;;7.65;63.33;94224.44;5022867;28;20100;-81
2024/02/04 02:55:25;;;;;;;4.13;2.03;;;;;;;7.68;63.22;94221.25;5022891;28;20025;-81
2024/02/04 02:57:50;;;;;;;2.85;1.92;;;;;;;7.67;62.95;94227.59;5023032;28;20072;-81
2024/02/04 03:00:16;;;;;;;5.40;1.50;;;;;;;7.71;63.36;94238.44;5022992;28;20248;-81
2024/02/04 03:02:41;;;;;;;5.70;1.85;;;;;;;7.76;63.14;94219.81;5023336;28;20273;-81
2024/02/04 03:05:07;;;;;;;2.40;1.38;;;;;;;7.81;62.90;94223.16;5023058;28;20022;-79
2024/02/04 03:07:33;;;;;;;6.63;1.42;;;;;;;7.80;62.75;94205.69;5022738;28;20044;-79
2024/02/04 03:09:58;;;;;;;3.97;1.83;;;;;;;7.89;62.93;94220.97;5022797;28;20022;-79
2024/02/04 03:12:24;;;;;;;3.47;1.33;;;;;;;7.93;62.85;94233.38;5022768;28;20029;-79
2024/02/04 03:14:49;;;;;;;3.47;1.73;;;;;;;7.95;62.61;94238.38;5021342;28;20030;-79
2024/02/04 03:17:15;;;;;;;2.22;1.10;;;;;;;7.96;63.33;94234.69;5022762;28;20021;-80
2024/02/04 03:19:40;;;;;;;2.65;1.20;;;;;;;7.92;63.45;94212.44;5023004;28;20355;-80
2024/02/04 03:22:06;;;;;;;2.63;1.33;;;;;;;7.97;63.47;94210.47;5022675;28;20347;-80
2024/02/04 03:24:31;;;;;;;4.82;1.60;;;;;;;7.97;63.16;94199.09;5022644;28;20343;-80
2024/02/04 03:26:57;;;;;;;4.95;1.65;;;;;;;8.00;63.31;94225.06;5022319;28;20029;-80
2024/02/04 03:29:22;;;;;;;2.72;1.02;;;;;;;7.97;63.76;94204.38;5022637;28;20085;-80
2024/02/04 03:31:48;;;;;;;2.00;1.15;;;;;;;7.93;63.74;94220.09;5022761;28;20133;-80
2024/02/04 03:34:13;;;;;;;2.22;1.20;;;;;;;7.99;63.56;94223.47;5022583;28;20089;-81
2024/02/04 03:36:39;;;;;;;2.45;1.23;;;;;;;7.94;63.66;94199.66;5022751;28;20080;-81
2024/02/04 03:39:05;;;;;;;3.38;1.40;;;;;;;7.98;64.03;94204.09;5021519;28;20323;-81
2024/02/04 03:41:30;;;;;;;2.33;1.05;;;;;;;7.95;64.16;94185.31;5022521;28;20033;-79
2024/02/04 03:43:55;;;;;;;2.58;1.30;;;;;;;8.02;64.28;94207.75;5022308;28;20093;-79
2024/02/04 03:46:21;;;;;;;1.63;0.80;;;;;;;8.09;64.20;94183.50;5022595;28;20018;-79
2024/02/04 03:48:46;;;;;;;2.40;1.00;;;;;;;8.13;64.75;94154.50;5022593;28;20061;-79
2024/02/04 03:51:16;;;;;;;2.08;0.93;;;;;;;8.20;64.70;94166.34;5026236;28;20060;-79
2024/02/04 03:53:42;;;;;;;2.80;1.30;;;;;;;8.10;63.47;94181.63;5026222;28;20088;-79
2024/02/04 03:56:08;;;;;;;5.20;1.73;;;;;;;8.01;63.48;94192.13;5024954;28;20032;-79
2024/02/04 03:58:34;;;;;;;1.90;1.10;;;;;;;7.97;64.15;94194.56;5026197;28;20052;-79
2024/02/04 04:00:59;;;;;;;2.47;1.40;;;;;;;8.05;63.91;94201.09;5026164;28;20025;-79
2024/02/04 04:03:26;;;;;;;2.63;1.30;;;;;;;7.99;64.20;94204.88;5025633;28;20213;-81
2024/02/04 04:05:52;;;;;;;2.90;1.23;;;;;;;7.91;65.06;94213.50;5024492;28;20032;-79
2024/02/04 04:08:18;;;;;;;2.28;1.10;;;;;;;7.94;64.92;94218.25;5025438;28;20033;-80
2024/02/04 04:10:44;;;;;;;1.77;1.10;;;;;;;7.93;65.50;94216.66;5025692;28;20073;-80
2024/02/04 04:13:09;;;;;;;2.00;1.15;;;;;;;7.92;65.80;94209.78;5025721;28;20097;-80
2024/02/04 04:15:35;;;;;;;2.35;1.23;;;;;;;7.88;66.30;94200.81;5024234;28;20041;-80
2024/02/04 04:18:00;;;;;;;2.03;0.90;;;;;;;7.93;66.56;94198.06;5025516;28;20029;-79
2024/02/04 04:20:26;;;;;;;4.40;1.55;;;;;;;7.93;66.27;94192.78;5025440;28;20087;-81
2024/02/04 04:22:51;;;;;;;2.75;1.05;;;;;;;7.97;66.21;94188.47;5025378;28;20061;-80
2024/02/04 04:25:17;;;;;;;2.08;1.25;;;;;;;7.97;66.56;94217.66;5025392;28;20026;-80
2024/02/04 04:27:43;;;;;;;2.90;1.55;;;;;;;7.87;66.67;94191.25;5025519;28;20033;-80
2024/02/04 04:30:09;;;;;;;2.40;1.27;;;;;;;7.86;66.77;94197.63;5025342;28;20300;-81
2024/02/04 04:32:35;;;;;;;1.88;1.10;;;;;;;7.84;67.08;94200.59;5025085;28;20206;-80
2024/02/04 04:35:01;;;;;;;1.20;0.60;;;;;;;7.89;68.97;94191.78;5024931;28;20032;-80
2024/02/04 04:37:26;;;;;;;2.05;0.90;;;;;;;7.96;68.47;94216.09;5025301;28;20037;-80
2024/02/04 04:39:52;;;;;;;2.70;1.30;;;;;;;8.02;67.91;94217.59;5025108;28;20324;-80
2024/02/04 04:42:17;;;;;;;3.30;1.48;;;;;;;8.06;68.64;94210.63;5025092;28;20268;-80
2024/02/04 04:44:43;;;;;;;2.53;1.10;;;;;;;8.01;67.99;94235.38;5025031;28;20386;-80
2024/02/04 04:47:08;;;;;;;1.33;0.80;;;;;;;7.99;67.53;94183.66;5024784;28;20030;-80
2024/02/04 04:49:34;;;;;;;2.70;1.38;;;;;;;7.99;67.17;94202.22;5024854;28;20383;-79
2024/02/04 04:51:59;;;;;;;2.45;1.48;;;;;;;8.07;66.75;94209.53;5024554;28;20041;-80
2024/02/04 04:54:27;;;;;;;1.75;1.15;;;;;;;8.01;66.24;94184.94;5024559;28;20037;-79
2024/02/04 04:56:52;;;;;;;2.42;1.42;;;;;;;8.05;66.08;94195.78;5024750;28;20026;-79
2024/02/04 04:59:18;;;;;;;2.30;1.08;;;;;;;8.02;65.50;94212.28;5024659;28;20026;-80
2024/02/04 05:01:49;;;;;;;2.25;1.38;;;;;;;8.02;65.13;94222.91;5023646;28;20030;-80
2024/02/04 05:04:18;;;;;;;1.57;0.97;;;;;;;8.00;64.94;94190.56;5024641;28;20013;-80
2024/02/04 05:06:44;;;;;;;3.42;1.55;;;;;;;7.93;64.83;94204.16;5024655;28;20018;-79
2024/02/04 05:09:09;;;;;;;2.30;1.50;;;;;;;7.89;65.44;94189.13;5023571;28;20026;-79
2024/02/04 05:11:35;;;;;;;3.20;1.70;;;;;;;7.94;65.23;94187.19;5024626;28;20022;-80
2024/02/04 05:14:00;;;;;;;3.05;1.63;;;;;;;7.89;65.18;94191.78;5024374;28;20029;-79
2024/02/04 05:16:26;;;;;;;2.63;1.63;;;;;;;7.87;65.33;94193.91;5024328;28;20189;-80
2024/02/04 05:18:51;;;;;;;3.33;1.10;;;;;;;7.86;65.17;94189.66;5023137;28;20034;-80
2024/02/04 05:21:17;;;;;;;2.97;1.23;;;;;;;7.88;65.00;94187.56;5024409;28;20030;-80
2024/02/04 05:23:42;;;;;;;4.60;1.20;;;;;;;7.91;64.33;94203.66;5024567;28;20042;-79
2024/02/04 05:26:07;;;;;;;5.32;1.50;;;;;;;7.99;64.03;94192.41;5024657;28;20343;-80
2024/02/04 05:28:33;;;;;;;1.30;0.85;;;;;;;7.97;63.97;94194.56;5023428;28;20320;-80
2024/02/04 05:30:58;;;;;;;3.42;1.23;;;;;;;8.03;63.67;94204.03;5024042;28;20034;-79
2024/02/04 05:33:24;;;;;;;3.00;1.48;;;;;;;8.01;63.75;94214.13;5024550;28;20056;-79
2024/02/04 05:35:49;;;;;;;2.47;1.20;;;;;;;8.06;63.48;94202.69;5024274;28;20100;-79
2024/02/04 05:38:16;;;;;;;2.97;1.33;;;;;;;8.10;63.09;94203.69;5024144;28;20037;-79
2024/02/04 05:40:42;;;;;;;2.80;1.58;;;;;;;8.13;63.09;94192.47;5024249;28;20033;-80
2024/02/04 05:43:10;;;;;;;3.22;1.45;;;;;;;8.07;62.74;94201.59;5023820;28;20085;-78
2024/02/04 05:45:40;;;;;;;4.03;1.33;;;;;;;8.11;62.56;94201.81;5023630;28;20095;-80
2024/02/04 05:48:07;;;;;;;5.03;1.98;;;;;;;8.08;62.09;94197.06;5023869;28;20309;-80
2024/02/04 05:50:32;;;;;;;3.10;1.67;;;;;;;8.11;62.54;94210.56;5023921;28;20041;-80
2024/02/04 05:52:58;;;;;;;4.25;1.67;;;;;;;8.14;62.83;94214.50;5023483;28;20044;-81
2024/02/04 05:55:23;;;;;;;2.33;0.98;;;;;;;8.12;63.03;94219.28;5023798;28;20097;-80
2024/02/04 05:57:49;;;;;;;3.13;1.33;;;;;;;8.14;63.21;94214.50;5023802;28;20086;-80
2024/02/04 06:00:15;;;;;;;3.83;1.30;;;;;;;8.14;63.37;94217.13;5023599;28;20264;-80
2024/02/04 06:02:42;;;;;;;3.10;1.63;;;;;;;8.01;63.10;94246.00;5024421;28;20216;-79
2024/02/04 06:05:09;;;;;;;3.58;1.70;;;;;;;8.02;63.28;94231.66;5023897;28;20097;-80
2024/02/04 06:07:34;;;;;;;4.50;1.20;;;;;;;8.04;63.66;94210.13;5023336;28;20227;-79
2024/02/04 06:10:01;;;;;;;2.78;1.42;;;;;;;7.99;63.80;94226.91;5023212;28;20033;-79
2024/02/04 06:12:26;;;;;;;2.65;1.48;;;;;;;8.01;64.20;94239.91;5021980;28;20029;-79
2024/02/04 06:14:51;;;;;;;4.57;1.73;;;;;;;7.91;64.24;94240.81;5023341;28;20021;-79
2024/02/04 06:17:17;;;;;;;4.47;1.95;;;;;;;7.94;63.84;94252.75;5022358;28;20197;-79
2024/02/04 06:19:42;;;;;;;3.75;1.92;;;;;;;7.93;63.99;94240.53;5022405;28;20111;-80
2024/02/04 06:22:08;;;;;;;2.97;1.70;;;;;;;7.89;64.13;94244.84;5022468;28;20018;-80
2024/02/04 06:24:33;;;;;;;2.63;1.63;;;;;;;7.91;64.08;94240.03;5022418;28;20040;-80
2024/02/04 06:26:59;;;;;;;2.95;1.67;;;;;;;7.97;63.98;94260.13;5023479;28;20018;-81
2024/02/04 06:29:24;;;;;;;3.15;1.42;;;;;;;7.87;64.08;94270.88;5023486;28;20116;-79
2024/02/04 06:31:49;;;;;;;2.97;1.45;;;;;;;7.88;64.36;94260.00;5023204;28;20014;-79
2024/02/04 06:34:15;;;;;;;3.33;1.30;;;;;;;7.84;64.21;94264.28;5022004;28;20017;-79
2024/02/04 06:36:46;;;;;;;3.65;1.83;;;;;;;7.89;63.94;94280.13;5023242;28;20024;-79
2024/02/04 06:39:12;;;;;;;4.45;1.50;;;;;;;7.88;64.08;94289.19;5023551;28;20101;-79
2024/02/04 06:41:37;;;;;;;2.70;1.25;;;;;;;7.91;63.73;94277.19;5023376;28;20030;-79
2024/02/04 06:44:04;;;;;;;2.00;0.95;;;;;;;7.96;63.70;94283.25;5023002;28;20340;-80
2024/02/04 06:46:29;;;;;;;3.55;1.90;;;;;;;7.94;63.52;94280.06;5022832;28;20067;-80
2024/02/04 06:48:55;;;;;;;3.35;1.30;;;;;;;7.97;62.29;94270.75;5022919;28;20030;-80
2024/02/04 06:51:21;;;;;;;2.83;1.38;;;;;;;8.12;61.09;94261.78;5022795;28;20056;-80
2024/02/04 06:53:46;;;;;;;3.85;1.83;;;;;;;8.18;61.21;94261.44;5022767;28;20050;-79
2024/02/04 06:56:12;;;;;;;1.42;0.80;;;;;;;8.30;60.47;94250.34;5023182;28;20026;-79
2024/02/04 06:58:38;;;;;;;1.63;0.98;;;;;;;8.40;59.38;94260.81;5023004;28;20036;-80
2024/02/04 07:01:04;;;;;;;2.03;1.00;;;;;;;8.46;58.99;94261.56;5022755;28;20022;-79
2024/02/04 07:03:30;;;;;;;3.90;1.23;;;;;;;8.49;58.36;94279.59;5023038;28;20192;-80
2024/02/04 07:05:55;;;;;;;3.67;1.23;;;;;;;8.43;60.08;94299.34;5022998;28;20030;-81
2024/02/04 07:08:21;;;;;;;2.05;1.25;;;;;;;8.33;60.48;94276.34;5022985;28;20034;-81
2024/02/04 07:10:46;;;;;;;2.97;1.20;;;;;;;8.36;60.08;94289.03;5022737;28;20037;-81
2024/02/04 07:13:12;;;;;;;2.05;1.13;;;;;;;8.37;60.36;94268.59;5022703;28;20089;-81
2024/02/04 07:15:38;;;;;;;3.42;1.40;;;;;;;8.28;61.04;94302.97;5022629;28;20325;-80
2024/02/04 07:18:04;;;;;;;2.70;1.10;;;;;;;8.17;60.86;94272.34;5022591;28;20299;-80
2024/02/04 07:20:29;;;;;;;1.50;0.88;;;;;;;8.07;61.23;94254.69;5022576;28;20134;-79
2024/02/04 07:22:55;;;;;;;2.00;0.88;;;;;;;8.15;61.01;94266.53;5022685;28;20021;-79
2024/02/04 07:25:21;;;;;;;4.72;1.50;;;;;;;8.02;61.62;94289.28;5024660;28;20022;-80
2024/02/04 07:27:46;;;;;;;2.95;1.30;;;;;;;8.02;61.89;94268.03;5026299;28;20021;-79
2024/02/04 07:30:12;;;;;;;4.28;1.35;;;;;;;8.04;61.67;94264.00;5026391;28;20089;-79
2024/02/04 07:32:37;;;;;;;1.85;0.93;;;;;;;8.07;60.92;94254.69;5026305;28;20022;-80
2024/02/04 07:35:03;;;;;;;3.45;1.42;;;;;;;8.15;60.13;94263.88;5026277;28;20332;-80
2024/02/04 07:37:28;;;;;;;2.60;1.25;;;;;;;8.26;59.92;94259.19;5026208;28;20050;-80
2024/02/04 07:39:54;;;;;;;1.90;1.20;;;;;;;8.35;58.99;94262.78;5026175;28;20022;-81
2024/02/04 07:42:19;;;;;;;2.47;1.25;;;;;;;8.41;59.24;94254.47;5026190;28;20026;-81
2024/02/04 07:44:44;;;;;;;2.40;1.20;;;;;;;8.51;58.02;94280.09;5025904;28;20014;-81
2024/02/04 07:47:11;;;;;;;3.25;0.93;;;;;;;8.51;57.49;94269.47;5026300;28;20427;-79
2024/02/04 07:49:37;;;;;;;2.17;1.27;;;;;;;8.52;57.77;94276.34;5026023;28;20032;-80
2024/02/04 07:52:03;;;;;;;2.40;1.10;;;;;;;8.60;57.93;94278.34;5026003;28;20049;-79
2024/02/04 07:54:28;;;;;;;4.32;1.38;;;;;;;8.62;57.22;94284.16;5024565;28;20270;-80
2024/02/04 07:56:54;;;;;;;2.42;1.10;;;;;;;8.66;57.24;94270.31;5025827;28;20033;-81
2024/02/04 07:59:19;;;;;;;2.13;1.00;;;;;;;8.70;56.03;94273.97;5025775;28;20265;-80
2024/02/04 08:01:45;;;;;;;8.00;2.03;;;;;;;8.82;56.37;94287.59;5024799;28;20028;-81
2024/02/04 08:04:10;;;;;;;4.53;1.15;;;;;;;8.82;55.73;94253.03;5025898;28;20021;-81
2024/02/04 08:06:37;;;;;;;1.70;0.70;;;;;;;8.87;53.79;94276.84;5025940;28;20030;-81
2024/02/04 08:09:06;;;;;;;2.10;0.70;;;;;;;8.99;54.17;94273.75;5025748;28;20021;-81
2024/02/04 08:11:32;;;;;;;1.83;1.13;;;;;;;9.06;53.93;94260.06;5025514;28;20261;-80
2024/02/04 08:13:57;;;;;;;1.17;0.60;;;;;;;9.07;52.75;94275.72;5024327;28;20059;-80
2024/02/04 08:16:22;;;;;;;2.00;1.05;;;;;;;9.15;53.66;94287.56;5025472;28;20220;-80
2024/02/04 08:18:48;;;;;;;2.28;0.55;;;;;;;9.16;52.30;94297.09;5025373;28;20021;-81
2024/02/04 08:21:13;;;;;;;3.00;0.80;;;;;;;9.26;53.00;94280.19;5025427;28;20097;-80
2024/02/04 08:23:41;;;;;;;1.80;0.50;;;;;;;9.35;51.77;94260.59;5025791;28;20013;-82
2024/02/04 08:26:07;;;;;;;1.50;0.50;;;;;;;9.43;51.96;94273.22;5024162;28;20088;-81
2024/02/04 08:28:32;;;;;;;0.82;0.43;;;;;;;9.53;52.48;94253.59;5025513;28;20198;-80
2024/02/04 08:30:58;;;;;;;2.28;0.75;;;;;;;9.57;52.10;94251.16;5025135;28;20089;-79
2024/02/04 08:33:23;;;;;;;0.50;0.30;;;;;;;9.69;51.35;94256.75;5025336;28;20026;-79
2024/02/04 08:35:49;;;;;;;2.92;0.32;;;;;;;9.61;51.70;94260.91;5026169;28;20028;-79
2024/02/04 08:38:14;;;;;;;2.97;0.45;;;;;;;9.67;51.51;94256.25;5026283;28;20025;-80
2024/02/04 08:40:40;;;;;;;1.30;0.47;;;;;;;9.67;51.34;94280.22;5025566;28;20220;-80
2024/02/04 08:43:05;;;;;;;1.23;0.70;;;;;;;9.59;52.05;94260.41;5027849;28;20080;-79
2024/02/04 08:45:31;;;;;;;1.25;0.65;;;;;;;9.58;52.80;94244.72;5027004;28;20033;-80
2024/02/04 08:47:56;;;;;;;1.40;0.60;;;;;;;9.56;53.24;94265.53;5024806;28;20021;-79
2024/02/04 08:50:22;;;;;;;1.17;0.50;;;;;;;9.44;54.43;94309.38;5024909;28;20068;-79
2024/02/04 08:52:47;;;;;;;3.45;0.52;;;;;;;9.46;54.00;94326.91;5024411;28;20156;-81
2024/02/04 08:55:13;;;;;;;1.77;0.70;;;;;;;9.35;54.25;94265.13;5023760;28;20338;-79
2024/02/04 08:57:39;;;;;;;7.00;0.65;;;;;;;9.36;54.46;94307.41;5024996;28;20030;-79
2024/02/04 09:00:08;;;;;;;2.97;0.40;;;;;;;9.26;55.77;94249.06;5024685;28;20021;-79
2024/02/04 09:02:34;;;;;;;0.52;0.30;;;;;;;9.21;56.38;94260.56;5024715;28;20358;-79
2024/02/04 09:05:00;;;;;;;0.88;0.60;;;;;;;9.07;56.83;94245.69;5024345;28;20017;-79
2024/02/04 09:07:25;;;;;;;0.68;0.30;;;;;;;8.97;57.43;94262.59;5024751;28;20269;-79
2024/02/04 09:09:51;;;;;;;1.75;0.70;;;;;;;8.99;57.34;94266.53;5024411;28;20038;-79
2024/02/04 09:12:16;;;;;;;1.63;0.68;;;;;;;8.89;57.93;94297.84;5023217;28;20324;-81
2024/02/04 09:14:42;;;;;;;0.80;0.50;;;;;;;8.93;57.99;94281.00;5025063;28;20265;-80
2024/02/04 09:17:08;;;;;;;1.77;0.80;;;;;;;8.93;57.83;94285.53;5024691;28;20100;-79
2024/02/04 09:19:33;;;;;;;1.55;0.82;;;;;;;8.92;58.21;94271.47;5023215;28;20057;-81
2024/02/04 09:22:01;;;;;;;2.13;0.75;;;;;;;8.95;58.31;94307.31;5024663;28;20236;-80
2024/02/04 09:24:27;;;;;;;1.25;0.80;;;;;;;8.98;58.53;94275.63;5024275;28;20029;-79
2024/02/04 09:26:52;;;;;;;2.22;1.73;;;;;;;8.96;58.20;94290.28;5024344;28;20022;-80
2024/02/04 09:29:18;;;;;;;1.48;1.02;;;;;;;8.95;58.57;94305.44;5024810;28;20049;-79
2024/02/04 09:31:43;;;;;;;2.72;0.90;;;;;;;8.97;58.59;94310.47;5024079;28;20083;-80
2024/02/04 09:34:09;;;;;;;2.08;0.98;;;;;;;8.99;58.60;94330.34;5023861;28;20332;-79
2024/02/04 09:36:34;;;;;;;1.25;0.65;;;;;;;9.03;58.48;94341.22;5023943;28;20026;-80
2024/02/04 09:38:59;;;;;;;2.25;1.00;;;;;;;8.98;58.35;94328.00;5025990;28;20029;-80
2024/02/04 09:41:26;;;;;;;5.75;1.55;;;;;;;9.07;58.34;94314.84;5023877;28;20022;-80
2024/02/04 09:43:52;;;;;;;3.83;1.20;;;;;;;9.26;57.95;94326.22;5023712;28;20368;-80
2024/02/04 09:46:18;;;;;;;3.17;1.33;;;;;;;9.25;57.86;94306.00;5023699;28;20041;-81
2024/02/04 09:48:45;;;;;;;5.35;1.30;;;;;;;9.34;57.46;94314.91;5023349;28;20037;-81
2024/02/04 09:51:11;;;;;;;5.20;1.50;;;;;;;9.41;57.63;94309.97;5023845;28;20026;-81
2024/02/04 09:53:42;;;;;;;4.05;1.30;;;;;;;9.36;57.48;94318.06;5023517;28;20335;-81
2024/02/04 09:56:09;;;;;;;2.80;1.20;;;;;;;9.32;57.39;94314.41;5023887;28;20034;-81
2024/02/04 09:58:34;;;;;;;4.70;1.30;;;;;;;9.42;57.64;94322.19;5023625;28;20029;-80
2024/02/04 10:01:00;;;;;;;3.05;1.55;;;;;;;9.48;57.04;94298.13;5023822;28;20054;-80
2024/02/04 10:03:26;;;;;;;5.70;1.50;;;;;;;9.43;57.21;94293.72;5023552;28;20040;-79
2024/02/04 10:05:52;;;;;;;3.20;1.45;;;;;;;9.46;57.18;94308.28;5023381;28;20276;-79
2024/02/04 10:08:17;;;;;;;4.05;1.90;;;;;;;9.51;57.37;94278.94;5023167;28;20232;-79
2024/02/04 10:10:43;;;;;;;3.88;1.70;;;;;;;9.73;56.82;94316.31;5022542;28;20048;-79
2024/02/04 10:13:09;;;;;;;3.97;1.50;;;;;;;9.82;56.36;94289.75;5023589;28;20030;-81
2024/02/04 10:15:34;;;;;;;3.08;1.52;;;;;;;9.84;56.95;94322.97;5022101;28;20037;-79
2024/02/04 10:18:05;;;;;;;4.47;1.60;;;;;;;9.72;56.51;94314.72;5023298;28;20093;-80
2024/02/04 10:20:32;;;;;;;4.35;1.48;;;;;;;9.60;57.23;94306.44;5022186;28;20026;-80
2024/02/04 10:22:58;;;;;;;3.70;1.40;;;;;;;9.66;57.26;94358.47;5023348;28;20026;-79
2024/02/04 10:25:23;;;;;;;4.30;1.52;;;;;;;9.53;58.12;94348.63;5023429;28;20268;-81
2024/02/04 10:27:49;;;;;;;2.30;1.25;;;;;;;9.38;58.84;94337.16;5023058;28;20021;-81
2024/02/04 10:30:14;;;;;;;3.25;1.30;;;;;;;9.41;58.85;94330.47;5023252;28;20029;-81
2024/02/04 10:32:41;;;;;;;3.17;1.50;;;;;;;9.46;59.31;94318.94;5023163;28;20224;-81
2024/02/04 10:35:08;;;;;;;3.17;1.55;;;;;;;9.52;59.84;94333.72;5023026;28;20363;-81
2024/02/04 10:37:34;;;;;;;10.80;1.75;;;;;;;9.53;59.51;94312.16;5023386;28;20116;-81
2024/02/04 10:39:59;;;;;;;7.10;1.67;;;;;;;9.53;59.84;94296.19;5023654;28;20312;-80
2024/02/04 10:42:27;;;;;;;3.28;1.40;;;;;;;9.56;59.56;94303.56;5023527;28;20262;-80
2024/02/04 10:44:58;;;;;;;4.20;1.30;;;;;;;9.55;58.96;94299.34;5021964;28;20152;-80
2024/02/04 10:47:26;;;;;;;5.57;1.77;;;;;;;9.54;59.56;94303.06;5022942;28;20033;-80
2024/02/04 10:49:55;;;;;;;3.10;1.30;;;;;;;9.62;59.67;94341.53;5023017;28;20037;-80
2024/02/04 10:52:23;;;;;;;2.70;1.40;;;;;;;9.59;59.57;94313.63;5022939;28;20228;-80
2024/02/04 10:54:49;;;;;;;4.38;1.83;;;;;;;9.60;59.71;94327.72;5022985;28;20057;-80
2024/02/04 10:57:21;;;;;;;5.70;1.50;;;;;;;9.43;59.49;94309.69;5023448;28;20093;-80
2024/02/04 10:59:47;;;;;;;3.40;1.23;;;;;;;9.37;60.11;94303.66;5024501;28;20038;-80
2024/02/04 11:02:15;;;;;;;6.43;1.70;;;;;;;9.33;60.06;94296.56;5027719;28;20038;-79
2024/02/04 11:04:42;;;;;;;2.55;1.17;;;;;;;9.25;60.70;94300.69;5026143;28;20028;-79
2024/02/04 11:07:09;;;;;;;2.88;1.27;;;;;;;9.23;60.62;94324.13;5027572;28;20096;-81
2024/02/04 11:09:37;;;;;;;4.45;1.23;;;;;;;9.21;60.41;94289.84;5027865;28;20026;-80
2024/02/04 11:12:09;;;;;;;2.72;1.38;;;;;;;9.26;60.70;94326.22;5026333;28;20028;-81
2024/02/04 11:14:58;;;;;;;2.73;1.30;;;;;;;9.27;60.11;94301.19;5026953;28;20053;-81
2024/02/04 11:17:43;;;;;;;2.80;1.25;;;;;;;9.33;60.33;94292.03;5028038;28;20276;-81
2024/02/04 11:20:09;;;;;;;3.15;1.27;;;;;;;9.44;59.75;94293.44;5027810;28;20089;-81
2024/02/04 11:22:48;;;;;;;2.85;1.23;;;;;;;9.54;59.64;94281.00;5027633;28;20459;-82
2024/02/04 11:25:45;;;;;;;;;;;;;;;;;;;;;
2024/02/04 11:28:12;;;;;;;3.17;1.25;;;;;;;9.67;58.90;94268.75;5024686;28;20061;-82
2024/02/04 11:30:38;;;;;;;3.28;0.98;;;;;;;9.64;58.92;94267.50;5027142;28;20052;-81
2024/02/04 11:33:04;;;;;;;6.43;1.60;;;;;;;9.65;59.46;94274.41;5028908;28;20038;-81
2024/02/04 11:35:32;;;;;;;5.13;1.38;;;;;;;9.68;59.14;94254.38;5027484;28;20084;-81
2024/02/04 11:37:57;;;;;;;2.70;1.30;;;;;;;9.65;58.87;94271.75;5026765;28;20030;-81
2024/02/04 11:40:25;;;;;;;3.10;1.10;;;;;;;9.56;59.09;94278.81;5025548;28;20049;-81